Time;durP1;ratioP1;P1;durP2;ratioP2;P2;SDS_P1;SDS_P2;PMS_P1;PMS_P2;Temp;Humidity;BMP_temperature;BMP_pressure;BME280_temperature;BME280_humidity;BME280_pressure;Samples;Min_cycle;Max_cycle;Signal;HPM_P1;HPM_P2
2022/12/04 00:01:12;;;;;;;110.20;37.43;;;0.90;1.00;;;;;;5091789;28;20198;-72
2022/12/04 00:03:39;;;;;;;107.20;40.00;;;0.90;12.90;;;;;;5091695;28;20192;-73
2022/12/04 00:06:10;;;;;;;77.80;28.83;;;0.90;58.70;;;;;;5091730;28;20191;-73
2022/12/04 00:08:38;;;;;;;111.03;42.90;;;0.90;99.90;;;;;;5091944;28;20210;-73
2022/12/04 00:11:07;;;;;;;97.57;38.50;;;0.90;99.90;;;;;;5091723;28;20218;-73
2022/12/04 00:13:34;;;;;;;118.03;41.67;;;0.90;99.90;;;;;;5091564;28;20200;-73
2022/12/04 00:16:03;;;;;;;102.27;36.30;;;1.00;99.90;;;;;;5091309;28;20196;-72
2022/12/04 00:18:30;;;;;;;107.40;40.23;;;1.00;99.90;;;;;;5091566;28;20196;-72
2022/12/04 00:20:57;;;;;;;99.90;37.17;;;1.00;99.90;;;;;;5091494;28;20250;-72
2022/12/04 00:23:25;;;;;;;110.23;38.73;;;1.00;99.90;;;;;;5095170;28;20188;-73
2022/12/04 00:25:52;;;;;;;110.67;40.43;;;1.00;99.90;;;;;;5094475;28;20199;-73
2022/12/04 00:28:19;;;;;;;81.33;28.60;;;1.00;99.90;;;;;;5095275;28;20221;-73
2022/12/04 00:30:46;;;;;;;105.30;40.67;;;1.00;99.90;;;;;;5095028;28;20192;-73
2022/12/04 00:33:14;;;;;;;107.27;40.67;;;1.00;99.90;;;;;;5094764;28;20191;-74
2022/12/04 00:35:41;;;;;;;125.23;43.50;;;1.00;1.00;;;;;;5094644;28;20203;-73
2022/12/04 00:38:08;;;;;;;107.20;37.27;;;1.00;1.00;;;;;;5094921;28;20554;-73
2022/12/04 00:40:36;;;;;;;122.27;43.47;;;1.00;1.00;;;;;;5094848;28;20682;-73
2022/12/04 00:43:03;;;;;;;109.73;39.83;;;1.10;1.00;;;;;;5094624;28;20206;-73
2022/12/04 00:45:30;;;;;;;114.90;42.00;;;1.00;1.00;;;;;;5094838;28;20703;-72
2022/12/04 00:47:57;;;;;;;113.93;41.30;;;1.00;1.00;;;;;;5095041;28;20211;-73
2022/12/04 00:50:24;;;;;;;111.77;40.40;;;1.10;1.00;;;;;;5094700;28;20217;-73
2022/12/04 00:52:51;;;;;;;123.57;41.67;;;1.10;1.00;;;;;;5094457;28;20225;-72
2022/12/04 00:55:18;;;;;;;120.13;43.93;;;1.10;1.00;;;;;;5094795;28;20238;-73
2022/12/04 00:57:47;;;;;;;102.67;39.03;;;1.10;1.00;;;;;;5094767;28;20199;-72
2022/12/04 01:00:14;;;;;;;120.90;41.43;;;1.20;1.00;;;;;;5093471;28;20242;-74
2022/12/04 01:02:41;;;;;;;105.67;37.77;;;1.20;1.00;;;;;;5094993;28;20196;-73
2022/12/04 01:05:09;;;;;;;113.10;38.77;;;1.20;1.00;;;;;;5094514;28;20207;-73
2022/12/04 01:07:36;;;;;;;104.20;38.90;;;1.20;1.00;;;;;;5094625;28;20227;-72
2022/12/04 01:10:05;;;;;;;107.70;39.83;;;1.20;1.00;;;;;;5094438;28;20596;-72
2022/12/04 01:12:32;;;;;;;120.70;41.43;;;1.20;1.00;;;;;;5094455;28;20613;-73
2022/12/04 01:15:00;;;;;;;117.70;40.70;;;1.20;1.00;;;;;;5094596;28;20704;-72
2022/12/04 01:17:28;;;;;;;117.23;40.17;;;1.30;1.00;;;;;;5094135;28;20195;-72
2022/12/04 01:19:55;;;;;;;112.67;40.30;;;1.30;99.90;;;;;;5093958;28;20274;-72
2022/12/04 01:22:22;;;;;;;105.90;38.40;;;1.30;99.90;;;;;;5094553;28;20203;-73
2022/12/04 01:24:49;;;;;;;107.80;40.33;;;1.30;99.90;;;;;;5093842;28;20719;-73
2022/12/04 01:27:16;;;;;;;122.60;40.30;;;1.30;99.90;;;;;;5094154;28;20223;-73
2022/12/04 01:29:43;;;;;;;113.90;39.17;;;1.30;99.90;;;;;;5094037;28;20230;-72
2022/12/04 01:32:11;;;;;;;114.73;40.87;;;1.30;99.90;;;;;;5093629;28;20199;-73
2022/12/04 01:34:38;;;;;;;99.07;36.93;;;1.30;99.90;;;;;;5093899;28;20245;-73
2022/12/04 01:37:05;;;;;;;116.73;39.60;;;1.40;99.90;;;;;;5093928;28;20223;-73
2022/12/04 01:39:32;;;;;;;122.37;40.67;;;1.30;99.90;;;;;;5093986;28;20251;-73
2022/12/04 01:41:59;;;;;;;110.73;38.90;;;1.30;99.90;;;;;;5093472;28;20199;-73
2022/12/04 01:44:26;;;;;;;108.43;39.83;;;1.30;99.90;;;;;;5093991;28;20197;-73
2022/12/04 01:46:55;;;;;;;129.17;41.40;;;1.30;1.00;;;;;;5093515;28;20196;-73
2022/12/04 01:49:28;;;;;;;117.37;41.37;;;1.40;1.00;;;;;;5093677;28;20223;-73
2022/12/04 01:52:02;;;;;;;123.90;41.97;;;1.40;99.90;;;;;;5093443;28;20227;-72
2022/12/04 01:54:32;;;;;;;115.40;40.17;;;1.40;99.90;;;;;;5093206;28;20196;-72
2022/12/04 01:57:04;;;;;;;105.07;38.40;;;1.40;99.90;;;;;;5093517;28;20180;-73
2022/12/04 01:59:34;;;;;;;89.87;32.47;;;1.40;99.90;;;;;;5093735;28;20192;-72
2022/12/04 02:02:04;;;;;;;117.83;39.93;;;1.40;99.90;;;;;;5093239;28;20204;-72
2022/12/04 02:04:34;;;;;;;93.53;30.93;;;1.40;99.90;;;;;;5093662;28;20193;-72
2022/12/04 02:07:01;;;;;;;108.70;38.33;;;1.40;99.90;;;;;;5092788;28;20280;-72
2022/12/04 02:09:29;;;;;;;105.37;37.27;;;1.40;99.90;;;;;;5093356;28;20189;-72
2022/12/04 02:12:07;;;;;;;118.60;40.97;;;1.40;99.90;;;;;;5093044;28;20202;-72
2022/12/04 02:14:44;;;;;;;108.53;38.47;;;1.40;1.00;;;;;;5093264;28;20195;-72
2022/12/04 02:17:22;;;;;;;106.33;37.20;;;1.40;1.00;;;;;;5093566;28;20597;-73
2022/12/04 02:20:04;;;;;;;110.80;38.43;;;1.40;1.00;;;;;;5092865;28;20193;-73
2022/12/04 02:23:00;;;;;;;118.30;42.93;;;1.40;1.00;;;;;;5093003;28;20203;-73
2022/12/04 02:25:35;;;;;;;122.20;40.77;;;1.30;1.00;;;;;;5091515;28;20252;-72
2022/12/04 02:28:15;;;;;;;114.77;41.57;;;1.40;1.00;;;;;;5092924;28;20601;-73
2022/12/04 02:30:44;;;;;;;114.53;37.63;;;1.40;1.00;;;;;;5093005;28;20191;-72
2022/12/04 02:33:19;;;;;;;94.43;34.80;;;1.40;1.00;;;;;;5092674;28;20203;-72
2022/12/04 02:35:50;;;;;;;116.13;41.20;;;1.40;1.00;;;;;;5093103;28;20306;-73
2022/12/04 02:38:22;;;;;;;121.93;40.23;;;1.40;1.00;;;;;;5092825;28;20238;-73
2022/12/04 02:40:56;;;;;;;116.20;39.93;;;1.40;1.00;;;;;;5092541;28;20183;-72
2022/12/04 02:43:30;;;;;;;109.13;37.93;;;1.40;1.00;;;;;;5092178;28;20192;-72
2022/12/04 02:46:01;;;;;;;106.03;38.73;;;1.40;1.00;;;;;;5092510;28;20587;-72
2022/12/04 02:48:33;;;;;;;123.23;42.80;;;1.30;1.00;;;;;;5092303;28;20249;-72
2022/12/04 02:51:03;;;;;;;120.97;41.37;;;1.40;1.00;;;;;;5092559;28;20803;-72
2022/12/04 02:53:34;;;;;;;112.03;36.83;;;1.40;1.00;;;;;;5092026;28;20697;-72
2022/12/04 02:56:06;;;;;;;119.37;40.67;;;1.40;1.00;;;;;;5092782;28;20193;-73
2022/12/04 02:58:39;;;;;;;118.77;41.30;;;1.30;1.00;;;;;;5092161;28;20196;-72
2022/12/04 03:01:18;;;;;;;112.47;37.83;;;1.40;1.00;;;;;;5092530;28;20192;-72
2022/12/04 03:03:51;;;;;;;128.27;42.70;;;1.30;1.00;;;;;;5092560;28;20285;-72
2022/12/04 03:06:19;;;;;;;117.70;39.73;;;1.40;1.00;;;;;;5092357;28;20186;-73
2022/12/04 03:08:49;;;;;;;120.53;40.07;;;1.40;1.00;;;;;;5092271;28;20700;-73
2022/12/04 03:11:17;;;;;;;120.80;39.97;;;1.40;56.50;;;;;;5091765;28;20184;-73
2022/12/04 03:13:49;;;;;;;123.60;39.10;;;1.40;54.80;;;;;;5092133;28;20646;-72
2022/12/04 03:16:22;;;;;;;112.77;38.17;;;1.40;41.50;;;;;;5092555;28;20192;-72
2022/12/04 03:18:54;;;;;;;96.90;37.33;;;1.40;43.10;;;;;;5091922;28;20245;-73
2022/12/04 03:21:28;;;;;;;116.90;39.80;;;1.40;50.80;;;;;;5092189;28;20209;-73
2022/12/04 03:23:59;;;;;;;110.80;36.53;;;1.40;24.00;;;;;;5092020;28;20226;-73
2022/12/04 03:26:32;;;;;;;93.60;33.50;;;1.40;64.30;;;;;;5091860;28;20707;-72
2022/12/04 03:29:09;;;;;;;106.17;36.00;;;1.40;82.50;;;;;;5091708;28;20258;-72
2022/12/04 03:31:42;;;;;;;120.10;41.00;;;1.40;99.90;;;;;;5091832;28;20179;-72
2022/12/04 03:34:12;;;;;;;115.40;40.40;;;1.40;99.90;;;;;;5092297;28;20192;-73
2022/12/04 03:36:46;;;;;;;111.90;38.80;;;1.50;99.90;;;;;;5092303;28;20188;-72
2022/12/04 03:39:20;;;;;;;103.47;34.83;;;1.40;99.90;;;;;;5092403;28;20646;-72
2022/12/04 03:41:57;;;;;;;100.33;35.33;;;1.50;99.90;;;;;;5091414;28;20650;-72
2022/12/04 03:44:28;;;;;;;84.40;31.13;;;1.40;99.90;;;;;;5092106;28;20192;-73
2022/12/04 03:46:59;;;;;;;112.60;39.43;;;1.50;99.90;;;;;;5091746;28;20187;-73
2022/12/04 03:49:38;;;;;;;121.37;40.43;;;1.50;99.90;;;;;;5091763;28;20212;-72
2022/12/04 03:52:10;;;;;;;109.50;37.90;;;1.50;99.90;;;;;;5091599;28;20227;-73
2022/12/04 03:54:43;;;;;;;117.37;40.93;;;1.50;99.90;;;;;;5091839;28;20614;-72
2022/12/04 03:57:14;;;;;;;114.73;38.37;;;1.50;99.90;;;;;;5095791;28;20202;-72
2022/12/04 03:59:47;;;;;;;114.20;38.93;;;1.50;99.90;;;;;;5095908;28;20196;-72
2022/12/04 04:02:18;;;;;;;113.10;38.27;;;1.60;99.90;;;;;;5095846;28;20192;-73
2022/12/04 04:04:49;;;;;;;120.37;40.80;;;1.60;99.90;;;;;;5095927;28;20187;-72
2022/12/04 04:07:24;;;;;;;105.67;37.57;;;1.60;99.90;;;;;;5095231;28;20195;-73
2022/12/04 04:09:56;;;;;;;121.27;38.67;;;1.60;99.90;;;;;;5095365;28;20323;-73
2022/12/04 04:12:27;;;;;;;106.27;36.83;;;1.60;99.90;;;;;;5095749;28;20199;-73
2022/12/04 04:26:08;;;;;;;120.67;40.70;;;1.60;1.00;;;;;;5094856;28;20252;-73
2022/12/04 04:28:37;;;;;;;117.00;39.83;;;1.60;1.00;;;;;;5095368;28;20615;-73
2022/12/04 04:31:20;;;;;;;106.10;35.87;;;1.60;1.00;;;;;;5094860;28;20714;-73
2022/12/04 04:33:53;;;;;;;104.80;37.83;;;1.60;1.00;;;;;;5083632;28;20196;-73
2022/12/04 04:36:27;;;;;;;119.40;38.93;;;1.60;1.00;;;;;;5095197;28;20650;-73
2022/12/04 04:39:01;;;;;;;104.67;35.20;;;1.60;1.00;;;;;;5095003;28;20188;-73
2022/12/04 04:41:35;;;;;;;108.60;38.17;;;1.70;1.00;;;;;;5095139;28;20283;-73
2022/12/04 04:44:12;;;;;;;112.27;37.03;;;1.70;1.00;;;;;;5095173;28;20708;-72
2022/12/04 04:46:46;;;;;;;120.27;38.77;;;1.60;1.00;;;;;;5094966;28;20200;-72
2022/12/04 04:49:14;;;;;;;112.03;35.93;;;1.60;1.00;;;;;;5094503;28;20258;-73
2022/12/04 04:51:43;;;;;;;114.87;38.53;;;1.70;1.00;;;;;;5094380;28;20224;-72
2022/12/04 04:54:13;;;;;;;97.00;33.50;;;1.70;1.00;;;;;;5094756;28;20188;-73
2022/12/04 04:56:42;;;;;;;88.30;31.40;;;1.70;1.00;;;;;;5094807;28;20947;-73
2022/12/04 04:59:09;;;;;;;107.17;35.20;;;1.70;80.80;;;;;;5094616;28;20203;-73
2022/12/04 05:01:38;;;;;;;108.90;38.83;;;1.70;11.20;;;;;;5094798;28;20269;-72
2022/12/04 05:04:07;;;;;;;101.13;35.63;;;1.70;72.70;;;;;;5094430;28;20195;-73
2022/12/04 05:06:34;;;;;;;96.77;34.33;;;1.70;99.90;;;;;;5094159;28;20191;-72
2022/12/04 05:09:01;;;;;;;114.60;37.53;;;1.70;99.90;;;;;;5093683;28;20211;-73
2022/12/04 05:11:28;;;;;;;101.27;37.17;;;1.70;99.90;;;;;;5094491;28;20251;-73
2022/12/04 05:13:55;;;;;;;111.67;37.40;;;1.70;99.90;;;;;;5094221;28;20196;-72
2022/12/04 05:16:22;;;;;;;100.53;33.20;;;1.70;99.90;;;;;;5094538;28;20200;-73
2022/12/04 05:21:32;;;;;;;103.83;34.23;;;1.80;99.90;;;;;;5093915;28;20185;-73
2022/12/04 05:23:59;;;;;;;101.80;35.20;;;1.80;99.90;;;;;;5093731;28;20599;-73
2022/12/04 05:26:26;;;;;;;104.83;36.87;;;1.80;99.90;;;;;;5093846;28;20203;-72
2022/12/04 05:28:53;;;;;;;108.60;36.03;;;1.80;99.90;;;;;;5093792;28;20219;-73
2022/12/04 05:31:20;;;;;;;107.47;35.40;;;1.80;99.90;;;;;;5094325;28;20245;-73
2022/12/04 05:33:48;;;;;;;105.27;34.63;;;1.80;99.90;;;;;;5094343;28;20255;-72
2022/12/04 05:36:15;;;;;;;102.30;36.03;;;1.80;99.90;;;;;;5093982;28;20597;-73
2022/12/04 05:38:44;;;;;;;101.63;34.07;;;1.80;99.90;;;;;;5093993;28;20200;-73
2022/12/04 05:41:11;;;;;;;100.37;34.67;;;1.80;99.90;;;;;;5093670;28;20250;-73
2022/12/04 05:43:38;;;;;;;97.40;33.90;;;1.90;99.90;;;;;;5093854;28;20189;-72
2022/12/04 05:46:07;;;;;;;103.03;34.13;;;1.90;99.90;;;;;;5093871;28;20199;-73
2022/12/04 05:48:35;;;;;;;85.83;30.17;;;1.90;99.90;;;;;;5093710;28;20630;-73
2022/12/04 05:51:05;;;;;;;75.60;27.23;;;1.90;99.90;;;;;;5093600;28;20280;-73
2022/12/04 05:53:33;;;;;;;100.63;34.40;;;1.80;99.90;;;;;;5093141;28;20315;-73
2022/12/04 05:56:02;;;;;;;85.43;30.50;;;1.90;99.90;;;;;;5093671;28;20197;-73
2022/12/04 05:58:30;;;;;;;99.13;32.47;;;1.90;99.90;;;;;;5093543;28;20269;-73
2022/12/04 06:00:57;;;;;;;94.37;31.40;;;1.90;99.90;;;;;;5093290;28;20360;-73
2022/12/04 06:03:24;;;;;;;92.30;32.07;;;1.90;99.90;;;;;;5093568;28;20199;-74
2022/12/04 06:05:51;;;;;;;92.80;33.17;;;1.90;99.90;;;;;;5093821;28;20196;-72
2022/12/04 06:08:18;;;;;;;96.30;31.80;;;2.00;99.90;;;;;;5093171;28;20275;-73
2022/12/04 06:10:45;;;;;;;99.87;32.20;;;1.90;99.90;;;;;;5092963;28;20651;-73
2022/12/04 06:13:13;;;;;;;89.43;29.73;;;2.00;99.90;;;;;;5093487;28;20202;-73
2022/12/04 06:15:41;;;;;;;88.23;33.27;;;2.00;99.90;;;;;;5093367;28;20195;-72
2022/12/04 06:18:08;;;;;;;85.37;33.33;;;2.00;99.90;;;;;;5093043;28;20253;-73
2022/12/04 06:20:35;;;;;;;91.27;31.87;;;2.00;99.90;;;;;;5092486;28;20647;-73
2022/12/04 06:23:02;;;;;;;84.23;32.10;;;2.00;99.90;;;;;;5093189;28;20187;-73
2022/12/04 06:25:29;;;;;;;78.17;28.70;;;2.00;1.00;;;;;;5093145;28;20196;-73
2022/12/04 06:27:56;;;;;;;86.77;29.93;;;2.00;99.90;;;;;;5093023;28;20241;-73
2022/12/04 06:30:25;;;;;;;80.73;28.33;;;2.00;99.90;;;;;;5093360;28;20211;-73
2022/12/04 06:32:52;;;;;;;77.07;30.27;;;2.00;99.90;;;;;;5093075;28;20196;-73
2022/12/04 06:35:19;;;;;;;90.00;31.23;;;2.00;99.90;;;;;;5092780;28;20201;-73
2022/12/04 06:37:46;;;;;;;94.43;31.13;;;2.00;1.00;;;;;;5092972;28;20196;-73
2022/12/04 06:40:13;;;;;;;88.23;29.13;;;2.10;1.00;;;;;;5092511;28;20189;-73
2022/12/04 06:43:25;;;;;;;90.87;32.87;;;2.00;1.00;;;;;;5111517;28;20185;-76
2022/12/04 06:46:02;;;;;;;86.47;30.07;;;2.00;1.00;;;;;;5102254;28;20273;-74
2022/12/04 06:48:30;;;;;;;100.90;32.73;;;2.00;1.00;;;;;;5086961;28;20198;-74
2022/12/04 06:51:02;;;;;;;99.37;31.63;;;2.10;1.00;;;;;;5103280;28;20232;-74
2022/12/04 06:53:29;;;;;;;100.93;31.50;;;2.00;1.00;;;;;;5092230;28;20281;-74
2022/12/04 06:55:58;;;;;;;105.20;31.57;;;2.10;1.00;;;;;;5074375;28;20202;-74
2022/12/04 06:58:25;;;;;;;93.50;31.13;;;2.10;1.00;;;;;;5072711;28;20222;-74
2022/12/04 07:00:52;;;;;;;109.63;32.10;;;2.10;1.00;;;;;;5072557;28;20204;-74
2022/12/04 07:03:21;;;;;;;116.80;36.50;;;2.10;1.00;;;;;;5072396;28;20195;-74
2022/12/04 07:05:49;;;;;;;109.30;32.60;;;2.10;1.00;;;;;;5071873;28;20238;-74
2022/12/04 07:08:17;;;;;;;126.90;35.37;;;2.10;1.00;;;;;;5071960;28;20674;-73
2022/12/04 07:10:45;;;;;;;122.13;35.00;;;2.10;1.00;;;;;;5086451;28;20215;-74
2022/12/04 07:13:12;;;;;;;131.90;35.50;;;2.10;1.00;;;;;;5091455;28;20192;-74
2022/12/04 07:15:42;;;;;;;131.53;35.47;;;2.20;1.00;;;;;;5087188;28;20779;-74
2022/12/04 07:18:09;;;;;;;111.03;30.87;;;2.20;1.00;;;;;;5072305;28;20197;-74
2022/12/04 07:20:39;;;;;;;129.67;34.47;;;2.20;1.00;;;;;;5071694;28;20193;-74
2022/12/04 07:23:06;;;;;;;116.17;32.37;;;2.20;1.00;;;;;;5072137;28;20185;-74
2022/12/04 07:25:40;;;;;;;121.17;32.77;;;2.20;1.00;;;;;;5088285;28;20193;-75
2022/12/04 07:28:09;;;;;;;110.67;33.00;;;2.20;1.00;;;;;;5091769;28;20232;-77
2022/12/04 07:30:37;;;;;;;124.97;34.87;;;2.20;1.00;;;;;;5097202;28;20226;-74
2022/12/04 07:33:12;;;;;;;132.17;36.33;;;2.20;1.00;;;;;;5109829;28;20221;-78
2022/12/04 07:35:40;;;;;;;132.37;34.83;;;2.20;1.00;;;;;;5104643;28;20658;-74
2022/12/04 07:38:07;;;;;;;123.60;34.37;;;2.20;1.00;;;;;;5111899;28;20183;-73
2022/12/04 07:40:37;;;;;;;138.93;35.87;;;2.20;1.00;;;;;;5112446;28;20192;-78
2022/12/04 07:43:14;;;;;;;135.60;34.33;;;2.20;1.00;;;;;;5103460;28;20213;-77
2022/12/04 07:45:42;;;;;;;140.27;36.00;;;2.30;1.00;;;;;;5108597;28;20212;-76
2022/12/04 07:48:09;;;;;;;119.83;34.10;;;2.30;1.00;;;;;;5102701;28;20193;-73
2022/12/04 07:50:47;;;;;;;133.73;35.20;;;2.30;1.00;;;;;;5103550;28;20286;-77
2022/12/04 07:53:14;;;;;;;145.40;35.23;;;2.30;1.00;;;;;;5108524;28;20241;-74
2022/12/04 07:55:42;;;;;;;181.63;40.90;;;2.40;1.00;;;;;;5108339;28;20197;-76
2022/12/04 07:58:09;;;;;;;151.20;36.47;;;2.30;1.00;;;;;;5101590;28;20616;-74
2022/12/04 08:00:36;;;;;;;153.10;37.67;;;2.40;1.00;;;;;;5107148;28;20189;-74
2022/12/04 08:03:04;;;;;;;166.13;39.47;;;2.40;1.00;;;;;;5100763;28;20198;-74
2022/12/04 08:05:33;;;;;;;183.87;37.43;;;2.40;1.00;;;;;;5106285;28;20217;-75
2022/12/04 08:08:05;;;;;;;160.87;36.37;;;2.40;1.00;;;;;;5107539;28;20544;-73
2022/12/04 08:10:32;;;;;;;148.63;35.77;;;2.40;1.00;;;;;;5103285;28;20231;-74
2022/12/04 08:12:59;;;;;;;181.60;38.57;;;2.40;1.00;;;;;;5088864;28;20205;-74
2022/12/04 08:15:26;;;;;;;157.93;37.30;;;2.40;1.00;;;;;;5079525;28;20247;-74
2022/12/04 08:17:53;;;;;;;173.07;37.80;;;2.50;1.00;;;;;;5078512;28;20197;-74
2022/12/04 08:20:20;;;;;;;120.87;31.47;;;2.50;1.00;;;;;;5092180;28;20201;-74
2022/12/04 08:22:48;;;;;;;107.97;28.23;;;2.50;1.00;;;;;;5078205;28;20245;-74
2022/12/04 08:25:17;;;;;;;144.57;35.17;;;2.50;99.90;;;;;;5094007;28;20195;-74
2022/12/04 08:27:45;;;;;;;139.03;33.77;;;2.50;1.00;;;;;;5090976;28;20551;-74
2022/12/04 08:30:13;;;;;;;156.40;33.93;;;2.50;1.00;;;;;;5090322;28;20218;-74
2022/12/04 08:32:41;;;;;;;196.67;40.97;;;2.50;1.00;;;;;;5094042;28;20721;-73
2022/12/04 08:35:08;;;;;;;204.63;39.87;;;2.60;1.00;;;;;;5103394;28;20610;-73
2022/12/04 08:37:35;;;;;;;183.10;36.80;;;2.60;1.00;;;;;;5098429;28;20252;-73
2022/12/04 08:40:02;;;;;;;199.10;39.90;;;2.60;1.00;;;;;;5079626;28;20245;-73
2022/12/04 08:42:31;;;;;;;206.13;41.50;;;2.60;1.00;;;;;;5075367;28;20197;-73
2022/12/04 08:44:58;;;;;;;152.13;35.37;;;2.60;99.90;;;;;;5075041;28;20198;-73
2022/12/04 08:47:25;;;;;;;206.37;40.20;;;2.60;99.90;;;;;;5075076;28;20656;-73
2022/12/04 08:49:55;;;;;;;241.60;42.83;;;2.60;1.00;;;;;;5091639;28;20218;-74
2022/12/04 08:52:22;;;;;;;245.40;40.93;;;2.50;1.00;;;;;;5113589;28;20223;-75
2022/12/04 08:54:51;;;;;;;227.27;41.70;;;2.60;1.00;;;;;;5111333;28;20270;-75
2022/12/04 08:57:19;;;;;;;222.23;39.87;;;2.60;1.00;;;;;;5100211;28;20222;-76
2022/12/04 08:59:51;;;;;;;204.60;38.30;;;2.60;1.00;;;;;;5109886;28;20250;-74
2022/12/04 09:02:30;;;;;;;173.73;38.33;;;2.60;1.00;;;;;;5112849;28;20206;-78
2022/12/04 09:04:57;;;;;;;234.17;41.30;;;2.60;1.00;;;;;;5105001;28;20277;-73
2022/12/04 09:07:24;;;;;;;255.37;43.73;;;2.70;1.00;;;;;;5097475;28;20600;-74
2022/12/04 09:09:51;;;;;;;219.57;41.57;;;2.70;1.00;;;;;;5113012;28;20246;-74
2022/12/04 09:12:19;;;;;;;239.83;40.43;;;2.70;1.00;;;;;;5113065;28;20205;-73
2022/12/04 09:14:47;;;;;;;233.67;40.97;;;2.80;1.00;;;;;;5101640;28;20233;-72
2022/12/04 09:17:23;;;;;;;249.27;40.40;;;2.80;1.00;;;;;;5095301;28;20197;-76
2022/12/04 09:19:50;;;;;;;226.43;42.13;;;2.80;1.00;;;;;;5056999;28;20221;-73
2022/12/04 09:22:17;;;;;;;204.50;39.30;;;2.90;1.00;;;;;;5088513;28;20196;-72
2022/12/04 09:24:50;;;;;;;240.83;42.07;;;2.90;99.90;;;;;;5094912;28;20195;-73
2022/12/04 09:27:18;;;;;;;242.00;41.37;;;2.90;99.90;;;;;;5103272;28;20202;-74
2022/12/04 09:29:49;;;;;;;259.90;42.53;;;2.90;99.90;;;;;;5096469;28;20241;-78
2022/12/04 09:32:16;;;;;;;235.00;40.83;;;2.90;1.00;;;;;;5101877;28;20194;-73
2022/12/04 09:34:44;;;;;;;185.67;36.80;;;2.90;1.00;;;;;;5093064;28;20239;-74
2022/12/04 09:37:11;;;;;;;207.87;38.90;;;3.00;99.90;;;;;;5088355;28;20663;-74
2022/12/04 09:39:42;;;;;;;218.03;41.50;;;3.00;99.90;;;;;;5083258;28;20206;-74
2022/12/04 09:42:21;;;;;;;221.03;40.17;;;3.00;99.90;;;;;;5094516;28;20684;-73
2022/12/04 09:44:53;;;;;;;203.87;38.13;;;3.00;99.90;;;;;;5096465;28;20198;-74
2022/12/04 09:47:24;;;;;;;241.27;41.23;;;3.00;99.90;;;;;;5093612;28;20240;-73
2022/12/04 09:50:07;;;;;;;241.17;42.07;;;3.00;99.90;;;;;;5104067;28;20212;-77
2022/12/04 09:52:47;;;;;;;227.97;39.67;;;3.00;99.90;;;;;;5103863;28;20233;-73
2022/12/04 09:55:28;;;;;;;198.73;38.33;;;3.00;99.90;;;;;;5100312;28;20209;-77
2022/12/04 09:58:00;;;;;;;216.50;39.87;;;3.00;99.90;;;;;;5104423;28;20576;-74
2022/12/04 10:00:30;;;;;;;214.57;39.93;;;3.00;99.90;;;;;;5102535;28;20252;-74
2022/12/04 10:03:02;;;;;;;167.00;38.10;;;3.10;99.90;;;;;;5093761;28;20656;-75
2022/12/04 10:05:42;;;;;;;210.33;40.50;;;3.10;99.90;;;;;;5107341;28;20637;-73
2022/12/04 10:08:17;;;;;;;165.83;35.03;;;3.10;99.90;;;;;;5093776;28;20181;-73
2022/12/04 10:10:51;;;;;;;202.90;40.20;;;3.10;99.90;;;;;;5093724;28;20220;-73
2022/12/04 10:13:33;;;;;;;165.83;37.40;;;3.10;99.90;;;;;;5093737;28;20186;-73
2022/12/04 10:16:09;;;;;;;187.90;37.93;;;3.20;99.90;;;;;;5098356;28;20159;-74
2022/12/04 10:18:49;;;;;;;161.83;36.73;;;3.20;78.30;;;;;;5109874;28;20201;-73
2022/12/04 10:21:32;;;;;;;164.67;36.10;;;3.20;1.00;;;;;;5107745;28;20281;-75
2022/12/04 10:24:18;;;;;;;182.50;36.53;;;3.20;34.60;;;;;;5098312;28;20190;-73
2022/12/04 10:26:48;;;;;;;157.87;37.10;;;3.30;50.20;;;;;;5100523;28;20228;-73
2022/12/04 10:29:21;;;;;;;150.83;38.27;;;3.30;1.00;;;;;;5111590;28;20187;-75
2022/12/04 10:31:54;;;;;;;169.00;37.13;;;3.30;1.00;;;;;;5103853;28;20197;-79
2022/12/04 10:34:25;;;;;;;177.57;36.10;;;3.40;1.00;;;;;;5092010;28;20775;-75
2022/12/04 10:36:54;;;;;;;158.47;37.27;;;3.40;1.00;;;;;;5089927;28;20183;-75
2022/12/04 10:39:25;;;;;;;150.40;35.63;;;3.40;1.00;;;;;;5093121;28;20190;-75
2022/12/04 10:41:58;;;;;;;162.23;39.00;;;3.40;1.00;;;;;;5093177;28;20171;-75
2022/12/04 10:44:28;;;;;;;160.27;35.77;;;3.40;1.00;;;;;;5094641;28;20186;-76
2022/12/04 10:47:00;;;;;;;154.40;36.97;;;3.50;1.00;;;;;;5092957;28;20263;-75
2022/12/04 10:49:28;;;;;;;144.10;33.27;;;3.50;1.00;;;;;;5091615;28;20183;-75
2022/12/04 10:51:56;;;;;;;144.10;36.20;;;3.50;1.00;;;;;;5092978;28;20215;-74
2022/12/04 10:54:29;;;;;;;132.07;35.13;;;3.60;1.00;;;;;;5091864;28;20702;-74
2022/12/04 10:57:01;;;;;;;141.47;36.40;;;3.60;1.00;;;;;;5100011;28;20183;-77
2022/12/04 10:59:49;;;;;;;153.07;37.50;;;3.60;1.00;;;;;;5111725;28;20207;-77
2022/12/04 11:02:29;;;;;;;117.70;31.73;;;3.70;1.00;;;;;;5107410;28;20190;-76
2022/12/04 11:04:58;;;;;;;127.37;33.47;;;3.70;1.00;;;;;;5104476;28;20179;-74
2022/12/04 11:07:36;;;;;;;133.80;34.03;;;3.70;1.00;;;;;;5110356;28;20197;-79
2022/12/04 11:10:21;;;;;;;134.67;35.93;;;3.80;1.00;;;;;;5114441;28;20203;-77
2022/12/04 11:13:02;;;;;;;120.53;33.53;;;3.80;1.00;;;;;;5114307;28;20175;-76
2022/12/04 11:18:31;;;;;;;122.50;34.43;;;3.80;99.90;;;;;;5112614;28;20201;-76
2022/12/04 11:23:52;;;;;;;111.80;33.50;;;3.80;99.90;;;;;;5111472;28;20285;-76
2022/12/04 11:26:49;;;;;;;111.23;30.90;;;3.90;99.90;;;;;;5114798;28;20167;-77
2022/12/04 11:29:25;;;;;;;108.67;30.60;;;3.90;1.00;;;;;;5114449;28;20187;-77
2022/12/04 11:32:04;;;;;;;131.03;33.43;;;3.90;99.90;;;;;;5114744;28;20211;-75
2022/12/04 11:34:36;;;;;;;113.77;32.27;;;3.90;99.90;;;;;;5113500;28;20213;-73
2022/12/04 11:37:03;;;;;;;122.63;33.77;;;3.90;99.90;;;;;;5092351;28;20236;-74
2022/12/04 11:39:34;;;;;;;110.57;32.13;;;3.90;99.90;;;;;;5095702;28;20244;-73
2022/12/04 11:42:05;;;;;;;120.93;31.93;;;3.90;99.90;;;;;;5082237;28;20188;-74
2022/12/04 11:44:35;;;;;;;122.60;35.00;;;3.90;99.90;;;;;;5090936;28;20175;-74
2022/12/04 11:47:04;;;;;;;98.17;28.57;;;4.00;99.90;;;;;;5090925;28;20661;-74
2022/12/04 11:49:34;;;;;;;113.97;34.67;;;4.00;99.90;;;;;;5089099;28;20191;-76
2022/12/04 11:52:22;;;;;;;113.57;33.37;;;3.90;99.90;;;;;;5097337;28;20258;-78
2022/12/04 11:55:00;;;;;;;110.30;33.70;;;4.00;99.90;;;;;;5090690;28;20183;-74
2022/12/04 11:57:37;;;;;;;102.87;31.33;;;3.90;99.90;;;;;;5090962;28;20179;-74
2022/12/04 12:00:16;;;;;;;121.30;34.03;;;3.90;99.90;;;;;;5103024;28;20614;-76
2022/12/04 12:03:10;;;;;;;123.40;34.17;;;3.90;99.90;;;;;;5108458;28;20191;-74
2022/12/04 12:06:07;;;;;;;91.27;30.23;;;3.90;99.90;;;;;;5098376;28;20179;-78
2022/12/04 12:08:48;;;;;;;112.33;31.93;;;3.90;99.90;;;;;;5089743;28;20626;-74
2022/12/04 12:11:26;;;;;;;109.50;32.03;;;4.00;99.90;;;;;;5076677;28;20208;-79
2022/12/04 12:14:02;;;;;;;85.03;27.60;;;4.00;99.90;;;;;;5071867;28;20176;-74
2022/12/04 12:16:41;;;;;;;107.50;32.30;;;4.00;99.90;;;;;;5075467;28;20516;-74
2022/12/04 12:19:24;;;;;;;89.93;29.90;;;4.00;99.90;;;;;;5077427;28;20577;-76
2022/12/04 12:22:02;;;;;;;104.70;31.23;;;4.00;99.90;;;;;;5075581;28;20188;-73
2022/12/04 12:24:31;;;;;;;107.17;30.57;;;4.00;99.90;;;;;;5075886;28;20176;-73
2022/12/04 12:27:18;;;;;;;91.73;29.50;;;4.00;99.90;;;;;;5079914;28;20224;-75
2022/12/04 12:29:59;;;;;;;84.00;28.33;;;4.10;99.90;;;;;;5087888;28;20541;-75
2022/12/04 12:32:38;;;;;;;103.10;32.40;;;4.00;99.90;;;;;;5090656;28;20175;-74
2022/12/04 12:35:14;;;;;;;100.07;32.00;;;4.00;99.90;;;;;;5094968;28;20225;-73
2022/12/04 12:37:48;;;;;;;89.50;29.73;;;4.00;99.90;;;;;;5095378;28;20179;-73
2022/12/04 12:40:34;;;;;;;94.30;30.40;;;4.00;99.90;;;;;;5096209;28;20190;-73
2022/12/04 12:43:06;;;;;;;116.23;31.70;;;4.00;99.90;;;;;;5102253;28;20906;-74
2022/12/04 12:45:41;;;;;;;104.93;30.90;;;4.00;99.90;;;;;;5097534;28;20178;-75
2022/12/04 12:48:16;;;;;;;83.63;27.23;;;4.00;99.90;;;;;;5094532;28;20190;-74
2022/12/04 12:50:48;;;;;;;97.73;30.20;;;4.00;99.90;;;;;;5094925;28;20201;-74
2022/12/04 12:53:20;;;;;;;89.40;29.43;;;4.00;99.90;;;;;;5094780;28;20231;-74
2022/12/04 12:55:50;;;;;;;99.93;29.93;;;4.00;99.90;;;;;;5094881;28;20175;-73
2022/12/04 12:58:25;;;;;;;89.80;29.67;;;4.00;99.90;;;;;;5092088;28;20669;-74
2022/12/04 13:01:00;;;;;;;94.93;31.37;;;4.00;99.90;;;;;;5093925;28;20179;-75
2022/12/04 13:03:35;;;;;;;102.17;32.07;;;3.90;99.90;;;;;;5095110;28;20183;-74
2022/12/04 13:06:06;;;;;;;90.57;30.27;;;4.00;99.90;;;;;;5094648;28;20183;-74
2022/12/04 13:08:40;;;;;;;92.37;29.93;;;4.00;99.90;;;;;;5094353;28;20183;-74
